Time;durP1;ratioP1;P1;durP2;ratioP2;P2;SDS_P1;SDS_P2;PMS_P1;PMS_P2;Temp;Humidity;BMP_temperature;BMP_pressure;BME280_temperature;BME280_humidity;BME280_pressure;Samples;Min_cycle;Max_cycle;Signal;HPM_P1;HPM_P2
2021/08/15 00:01:27;;;;;;;34.70;10.52;;;;;;;18.40;33.75;99567.00;5060450;28;20075;-74
2021/08/15 00:03:53;;;;;;;25.50;10.60;;;;;;;18.37;33.87;99567.31;5095330;28;20480;-75
2021/08/15 00:06:19;;;;;;;28.17;10.77;;;;;;;18.38;34.36;99571.72;5076840;28;20525;-74
2021/08/15 00:08:46;;;;;;;34.03;11.13;;;;;;;18.32;34.63;99572.41;5093609;28;20172;-75
2021/08/15 00:11:12;;;;;;;31.30;10.20;;;;;;;18.18;34.65;99563.91;5027159;28;20135;-74
2021/08/15 00:13:38;;;;;;;30.92;9.68;;;;;;;18.34;34.49;99583.88;5060152;28;20044;-76
2021/08/15 00:16:04;;;;;;;23.30;10.55;;;;;;;18.33;34.74;99584.91;5077243;28;20050;-75
2021/08/15 00:18:31;;;;;;;28.45;10.85;;;;;;;18.23;34.83;99570.69;5076819;28;20043;-74
2021/08/15 00:20:56;;;;;;;31.27;11.70;;;;;;;18.17;34.92;99583.03;5076650;28;20066;-75
2021/08/15 00:23:22;;;;;;;28.25;10.57;;;;;;;18.05;35.25;99571.63;5076658;28;20134;-74
2021/08/15 00:25:48;;;;;;;24.13;10.75;;;;;;;18.17;35.57;99589.28;5059951;28;20124;-76
2021/08/15 00:28:14;;;;;;;27.63;10.07;;;;;;;18.11;35.25;99581.81;5093372;28;20189;-75
2021/08/15 00:30:40;;;;;;;25.02;10.38;;;;;;;18.17;35.47;99600.09;5093251;28;20453;-74
2021/08/15 00:33:06;;;;;;;21.67;10.60;;;;;;;18.14;35.45;99595.00;5093183;28;20048;-75
2021/08/15 00:35:32;;;;;;;26.33;11.32;;;;;;;18.17;35.51;99616.34;5093174;28;20043;-74
2021/08/15 00:37:58;;;;;;;24.90;10.15;;;;;;;18.15;35.68;99612.09;5059826;28;20051;-75
2021/08/15 00:40:24;;;;;;;41.95;11.13;;;;;;;18.09;35.70;99613.59;5093023;28;20134;-76
2021/08/15 00:42:50;;;;;;;22.00;10.43;;;;;;;18.02;35.82;99612.56;5043420;28;20079;-75
2021/08/15 00:45:16;;;;;;;23.42;11.20;;;;;;;18.03;35.95;99614.25;5076237;28;20506;-74
2021/08/15 00:47:42;;;;;;;30.45;10.40;;;;;;;17.93;36.21;99602.72;5093370;28;20063;-74
2021/08/15 00:50:08;;;;;;;29.05;10.95;;;;;;;17.88;36.09;99605.06;5042769;28;20506;-75
2021/08/15 00:52:34;;;;;;;28.25;10.00;;;;;;;17.88;36.45;99613.19;5092803;28;20039;-75
2021/08/15 00:55:07;;;;;;;24.45;11.30;;;;;;;17.88;36.53;99615.91;5075909;28;20499;-74
2021/08/15 00:57:35;;;;;;;23.88;11.25;;;;;;;17.82;36.63;99619.22;5076524;28;20134;-74
2021/08/15 01:00:07;;;;;;;30.15;11.05;;;;;;;17.73;36.79;99602.94;5109677;28;20047;-74
2021/08/15 01:02:34;;;;;;;28.08;12.30;;;;;;;17.72;36.67;99603.13;5076336;28;20077;-75
2021/08/15 01:05:01;;;;;;;28.23;11.32;;;;;;;17.90;36.90;99620.13;5042582;28;20139;-74
2021/08/15 01:07:27;;;;;;;25.15;11.60;;;;;;;17.92;36.48;99612.69;5058959;28;20036;-75
2021/08/15 01:09:52;;;;;;;31.50;11.45;;;;;;;17.88;36.83;99605.06;5075753;28;20055;-75
2021/08/15 01:12:18;;;;;;;27.50;13.38;;;;;;;17.90;36.58;99616.56;5076003;28;20505;-75
2021/08/15 01:14:45;;;;;;;41.40;14.18;;;;;;;17.71;36.85;99621.22;5075908;28;20043;-75
2021/08/15 01:17:11;;;;;;;27.90;13.75;;;;;;;17.63;36.77;99617.59;5059652;28;20051;-75
2021/08/15 01:19:37;;;;;;;38.58;13.73;;;;;;;17.63;37.13;99629.25;5042429;28;20059;-74
2021/08/15 01:22:03;;;;;;;31.52;13.70;;;;;;;17.69;37.03;99635.88;5059407;28;20140;-75
2021/08/15 01:24:29;;;;;;;31.00;13.35;;;;;;;17.65;37.13;99632.66;5075898;28;20036;-75
2021/08/15 01:26:57;;;;;;;36.97;13.90;;;;;;;17.66;37.07;99637.03;5076103;28;20125;-75
2021/08/15 01:29:23;;;;;;;31.02;13.77;;;;;;;17.67;36.92;99638.72;5058936;28;20055;-74
2021/08/15 01:31:50;;;;;;;28.63;12.35;;;;;;;17.71;37.04;99636.56;5075616;28;20567;-74
2021/08/15 01:34:16;;;;;;;33.05;12.02;;;;;;;17.74;37.04;99630.81;5075286;28;20040;-74
2021/08/15 01:36:42;;;;;;;25.35;11.15;;;;;;;17.86;37.00;99651.19;5042048;28;20407;-75
2021/08/15 01:39:08;;;;;;;31.67;11.35;;;;;;;17.85;36.83;99632.44;5075303;28;20071;-74
2021/08/15 01:41:34;;;;;;;42.08;11.57;;;;;;;17.94;36.74;99644.97;5058405;28;20498;-75
2021/08/15 01:44:01;;;;;;;26.65;9.75;;;;;;;17.91;36.59;99631.81;5075383;28;20040;-75
2021/08/15 01:46:28;;;;;;;33.83;10.23;;;;;;;17.93;36.40;99646.84;5091452;28;20046;-74
2021/08/15 01:48:55;;;;;;;46.15;11.30;;;;;;;18.03;36.30;99646.72;5075391;28;20051;-74
2021/08/15 01:51:21;;;;;;;34.72;10.70;;;;;;;18.02;36.47;99646.88;5074993;28;20040;-74
2021/08/15 01:53:48;;;;;;;26.83;11.25;;;;;;;18.02;36.22;99650.44;5042129;28;20494;-74
2021/08/15 01:56:14;;;;;;;34.97;10.32;;;;;;;17.98;36.27;99638.25;5091889;28;20135;-75
2021/08/15 01:58:40;;;;;;;26.60;10.40;;;;;;;17.93;36.38;99640.59;5041919;28;20453;-74
2021/08/15 02:01:06;;;;;;;20.63;10.38;;;;;;;18.08;36.47;99647.06;5091645;28;20054;-74
2021/08/15 02:03:32;;;;;;;28.73;9.70;;;;;;;18.08;36.52;99638.94;5091697;28;20060;-74
2021/08/15 02:05:58;;;;;;;29.73;9.30;;;;;;;18.14;36.48;99645.56;5058111;28;20048;-74
2021/08/15 02:08:24;;;;;;;25.13;9.20;;;;;;;18.05;36.21;99644.69;5075198;28;20435;-75
2021/08/15 02:10:50;;;;;;;30.95;9.35;;;;;;;18.05;36.13;99636.56;5074689;28;20047;-75
2021/08/15 02:13:16;;;;;;;20.23;8.68;;;;;;;17.98;35.95;99627.44;5058340;28;20047;-75
2021/08/15 02:15:42;;;;;;;24.75;8.55;;;;;;;18.02;35.85;99642.31;5074666;28;20093;-75
2021/08/15 02:18:08;;;;;;;22.85;9.13;;;;;;;18.09;35.71;99639.78;5041824;28;20040;-75
2021/08/15 02:20:35;;;;;;;28.23;7.72;;;;;;;18.06;35.15;99616.63;5057571;28;20496;-74
2021/08/15 02:23:01;;;;;;;25.02;7.43;;;;;;;18.03;35.26;99618.81;5057969;28;20044;-74
2021/08/15 02:25:27;;;;;;;24.73;8.00;;;;;;;18.09;34.85;99628.97;5074662;28;20036;-74
2021/08/15 02:27:54;;;;;;;26.02;8.27;;;;;;;18.19;34.93;99629.69;5075118;28;20040;-74
2021/08/15 02:30:22;;;;;;;24.63;8.38;;;;;;;18.29;34.71;99634.97;5074672;28;20131;-73
2021/08/15 02:32:48;;;;;;;27.52;9.30;;;;;;;18.38;34.34;99639.38;5057901;28;20134;-75
2021/08/15 02:35:14;;;;;;;27.48;8.77;;;;;;;18.32;34.68;99635.47;5058071;28;20612;-73
2021/08/15 02:37:41;;;;;;;22.77;8.75;;;;;;;18.15;34.76;99623.75;5091025;28;20069;-74
2021/08/15 02:40:08;;;;;;;23.70;7.95;;;;;;;18.03;34.94;99641.31;5041338;28;20159;-75
2021/08/15 02:42:35;;;;;;;21.70;8.02;;;;;;;18.02;34.97;99639.63;5078359;28;20043;-74
2021/08/15 02:45:02;;;;;;;27.58;8.73;;;;;;;18.11;34.67;99651.31;5061680;28;20044;-74
2021/08/15 02:47:28;;;;;;;31.48;9.43;;;;;;;17.89;34.23;99650.03;5061734;28;20055;-76
2021/08/15 02:49:54;;;;;;;21.23;8.27;;;;;;;18.07;34.79;99652.66;5061917;28;20039;-74
2021/08/15 02:52:20;;;;;;;37.75;8.27;;;;;;;18.26;34.75;99663.19;5061605;28;20044;-74
2021/08/15 02:54:45;;;;;;;27.30;8.75;;;;;;;18.41;34.31;99655.28;5077985;28;20058;-74
2021/08/15 02:57:11;;;;;;;32.97;8.77;;;;;;;18.35;33.74;99672.19;5078361;28;20441;-75
2021/08/15 02:59:40;;;;;;;27.15;8.75;;;;;;;18.16;33.97;99660.59;5061363;28;20517;-75
2021/08/15 03:02:09;;;;;;;36.00;9.43;;;;;;;18.23;34.21;99660.81;5062067;28;20395;-75
2021/08/15 03:04:35;;;;;;;31.40;7.25;;;;;;;18.32;34.17;99661.72;5061452;28;20040;-76
2021/08/15 03:07:02;;;;;;;24.58;8.55;;;;;;;18.35;33.85;99678.44;5078385;28;20081;-74
2021/08/15 03:09:28;;;;;;;15.38;7.18;;;;;;;18.18;33.63;99666.72;5061299;28;20074;-75
2021/08/15 03:11:54;;;;;;;18.90;7.68;;;;;;;18.27;33.64;99666.75;5061703;28;20044;-74
2021/08/15 03:14:20;;;;;;;31.33;8.68;;;;;;;18.26;33.82;99656.94;5061224;28;20044;-74
2021/08/15 03:16:46;;;;;;;20.73;7.82;;;;;;;18.33;33.33;99652.56;5061283;28;20054;-75
2021/08/15 03:19:12;;;;;;;20.83;7.30;;;;;;;18.37;33.43;99649.34;5061290;28;20060;-75
2021/08/15 03:21:39;;;;;;;20.25;6.95;;;;;;;18.59;33.49;99669.53;5061770;28;20075;-74
2021/08/15 03:24:05;;;;;;;32.88;8.38;;;;;;;18.65;33.35;99662.59;5061998;28;20101;-74
2021/08/15 03:26:32;;;;;;;26.50;7.70;;;;;;;18.64;33.14;99671.75;5061589;28;20044;-75
2021/08/15 03:28:58;;;;;;;16.85;7.22;;;;;;;18.71;33.17;99666.56;5078711;28;20356;-74
2021/08/15 03:31:24;;;;;;;18.67;7.65;;;;;;;18.79;32.74;99653.00;5078160;28;20055;-75
2021/08/15 03:33:50;;;;;;;22.23;6.95;;;;;;;18.95;32.36;99673.84;5080494;28;20047;-74
2021/08/15 03:36:17;;;;;;;21.10;7.15;;;;;;;18.75;32.59;99685.00;5081130;28;20502;-74
2021/08/15 03:38:42;;;;;;;25.52;8.25;;;;;;;18.42;33.41;99690.31;5067109;28;20051;-75
2021/08/15 03:41:08;;;;;;;24.73;7.65;;;;;;;18.58;33.66;99680.53;5068368;28;20462;-74
2021/08/15 03:43:34;;;;;;;17.55;7.28;;;;;;;18.76;33.33;99680.44;5085150;28;20040;-74
2021/08/15 03:46:00;;;;;;;21.02;6.93;;;;;;;18.96;33.44;99687.22;5082905;28;20054;-75
2021/08/15 03:48:27;;;;;;;23.38;7.22;;;;;;;19.09;32.92;99687.56;5098654;28;20044;-75
2021/08/15 03:50:52;;;;;;;25.25;7.72;;;;;;;19.24;32.95;99671.47;5062055;28;20040;-75
2021/08/15 03:53:18;;;;;;;18.83;7.15;;;;;;;19.32;32.67;99665.19;5076554;28;20516;-75
2021/08/15 03:55:44;;;;;;;24.17;7.03;;;;;;;19.56;32.57;99686.88;5077314;28;20050;-74
2021/08/15 03:58:10;;;;;;;20.52;7.30;;;;;;;19.77;32.28;99683.59;5060567;28;20059;-75
2021/08/15 04:00:40;;;;;;;20.50;6.78;;;;;;;19.97;31.94;99670.50;5077250;28;20048;-78
2021/08/15 04:03:13;;;;;;;21.33;6.32;;;;;;;20.19;31.72;99665.31;5062116;28;20134;-79
2021/08/15 04:05:40;;;;;;;22.00;6.55;;;;;;;20.36;31.44;99672.38;5060472;28;20119;-76
2021/08/15 04:08:06;;;;;;;17.52;6.75;;;;;;;20.42;31.47;99673.50;5076831;28;20135;-80
2021/08/15 04:10:33;;;;;;;36.47;7.00;;;;;;;20.56;30.98;99676.34;5030916;28;20085;-79
2021/08/15 04:12:59;;;;;;;24.55;6.50;;;;;;;20.68;30.74;99674.06;5077481;28;20157;-78
2021/08/15 04:15:25;;;;;;;17.25;7.32;;;;;;;20.84;30.79;99673.13;5060793;28;20048;-79
2021/08/15 04:17:51;;;;;;;17.95;6.95;;;;;;;20.96;30.46;99665.38;5077462;28;20036;-77
2021/08/15 04:20:17;;;;;;;16.75;6.53;;;;;;;21.08;30.29;99664.75;5043583;28;20078;-78
2021/08/15 04:22:43;;;;;;;22.50;7.50;;;;;;;21.19;30.13;99662.66;5076648;28;20088;-76
2021/08/15 04:25:09;;;;;;;20.50;6.97;;;;;;;21.42;30.14;99665.34;5076793;28;20048;-77
2021/08/15 04:27:35;;;;;;;23.98;8.57;;;;;;;21.50;29.98;99649.78;5076800;28;20467;-78
2021/08/15 04:30:01;;;;;;;21.83;7.32;;;;;;;21.73;29.84;99662.47;5110909;28;20044;-78
2021/08/15 04:32:27;;;;;;;26.27;7.35;;;;;;;21.83;29.70;99657.59;5060772;28;20036;-78
2021/08/15 04:34:53;;;;;;;21.67;7.75;;;;;;;22.03;29.57;99675.03;5076635;28;20044;-78
2021/08/15 04:37:20;;;;;;;20.45;7.70;;;;;;;22.24;29.81;99676.19;5043462;28;20063;-77
2021/08/15 04:39:45;;;;;;;22.55;7.50;;;;;;;22.34;29.08;99668.59;5076393;28;20348;-77
2021/08/15 04:42:11;;;;;;;24.98;8.10;;;;;;;22.44;29.03;99670.97;5059799;28;20036;-77
2021/08/15 04:44:38;;;;;;;27.65;9.70;;;;;;;22.54;28.99;99655.19;5059272;28;20032;-76
2021/08/15 04:47:04;;;;;;;26.52;8.18;;;;;;;22.64;28.85;99666.63;5109096;28;20142;-78
2021/08/15 04:49:30;;;;;;;31.90;9.02;;;;;;;22.82;28.84;99673.50;5042362;28;20043;-78
2021/08/15 04:51:56;;;;;;;31.48;8.00;;;;;;;22.92;28.73;99664.00;5075614;28;20044;-78
2021/08/15 04:54:28;;;;;;;28.95;7.63;;;;;;;23.03;28.71;99685.28;5059431;28;20044;-78
2021/08/15 04:56:55;;;;;;;26.23;8.80;;;;;;;22.96;28.55;99670.75;5059857;28;20522;-78
2021/08/15 04:59:21;;;;;;;26.83;8.85;;;;;;;23.08;29.09;99684.69;5075558;28;20050;-76
2021/08/15 05:01:46;;;;;;;25.15;8.82;;;;;;;23.20;29.01;99682.28;5058607;28;20043;-77
2021/08/15 05:04:12;;;;;;;34.00;8.57;;;;;;;23.30;29.04;99671.03;5091775;28;20074;-78
2021/08/15 05:06:38;;;;;;;16.23;7.82;;;;;;;23.43;29.02;99682.91;5042250;28;20042;-78
2021/08/15 05:09:04;;;;;;;23.58;8.70;;;;;;;23.60;28.89;99686.19;5075455;28;20052;-79
2021/08/15 05:11:30;;;;;;;29.70;8.35;;;;;;;23.78;28.74;99680.25;5092112;28;20130;-77
2021/08/15 05:13:56;;;;;;;22.67;8.75;;;;;;;23.90;28.90;99672.34;5092781;28;20067;-77
2021/08/15 05:16:22;;;;;;;23.20;7.68;;;;;;;23.94;28.76;99682.66;5075036;28;20036;-79
2021/08/15 05:18:48;;;;;;;24.33;8.00;;;;;;;23.93;28.73;99675.53;5058754;28;20044;-81
2021/08/15 05:21:15;;;;;;;19.98;7.53;;;;;;;24.13;28.67;99688.44;5075127;28;20046;-82
2021/08/15 05:23:40;;;;;;;31.92;8.70;;;;;;;24.13;28.90;99677.50;5075259;28;20039;-78
2021/08/15 05:26:06;;;;;;;31.55;8.38;;;;;;;24.18;28.89;99686.81;5092075;28;20048;-79
2021/08/15 05:28:32;;;;;;;27.60;8.82;;;;;;;24.28;28.62;99686.41;5058899;28;20050;-76
2021/08/15 05:30:58;;;;;;;54.88;15.52;;;;;;;24.38;28.43;99678.69;5092634;28;20048;-78
2021/08/15 05:33:24;;;;;;;33.40;8.57;;;;;;;24.41;28.56;99681.03;5058555;28;20108;-78
2021/08/15 05:35:50;;;;;;;28.13;8.43;;;;;;;24.61;28.49;99669.34;5093087;28;20048;-76
2021/08/15 05:38:16;;;;;;;29.83;9.18;;;;;;;24.85;28.27;99667.91;5074867;28;20079;-78
2021/08/15 05:40:42;;;;;;;28.25;8.25;;;;;;;25.05;28.08;99657.84;5046757;28;20415;-77
2021/08/15 05:43:08;;;;;;;27.02;8.75;;;;;;;25.35;27.92;99671.13;5041462;28;20072;-80
2021/08/15 05:45:34;;;;;;;30.85;8.80;;;;;;;25.39;27.41;99656.00;5089741;28;20434;-79
2021/08/15 05:48:00;;;;;;;39.33;9.10;;;;;;;25.56;27.57;99661.88;5091750;28;20040;-77
2021/08/15 05:50:26;;;;;;;45.45;10.38;;;;;;;25.72;27.50;99663.31;5091065;28;20410;-78
2021/08/15 05:52:52;;;;;;;36.97;9.20;;;;;;;25.92;27.21;99665.00;5023385;28;20047;-79
2021/08/15 05:55:19;;;;;;;35.25;10.15;;;;;;;26.12;27.09;99661.34;5055715;28;20560;-78
2021/08/15 05:57:45;;;;;;;26.88;9.32;;;;;;;26.32;26.81;99662.09;5055974;28;20083;-77
2021/08/15 06:00:11;;;;;;;39.53;10.10;;;;;;;26.44;26.52;99654.06;5088280;28;20041;-80
2021/08/15 06:02:37;;;;;;;32.63;9.80;;;;;;;26.58;26.34;99660.34;5063465;28;20055;-79
2021/08/15 06:05:03;;;;;;;21.23;9.40;;;;;;;26.61;26.32;99659.91;5018966;28;20036;-78
2021/08/15 06:07:29;;;;;;;29.05;9.00;;;;;;;26.68;26.43;99660.72;5071853;28;20047;-80
2021/08/15 06:09:55;;;;;;;30.67;9.32;;;;;;;26.80;26.22;99656.19;5071312;28;20052;-78
2021/08/15 06:12:21;;;;;;;31.77;9.43;;;;;;;27.04;26.38;99650.97;5055127;28;20044;-78
2021/08/15 06:14:47;;;;;;;41.83;10.35;;;;;;;27.32;26.51;99659.66;5054678;28;20177;-78
2021/08/15 06:17:13;;;;;;;27.65;9.95;;;;;;;27.52;25.93;99661.38;5038673;28;20036;-78
2021/08/15 06:19:39;;;;;;;31.88;9.27;;;;;;;27.70;25.70;99655.91;5071824;28;20048;-79
2021/08/15 06:22:05;;;;;;;28.35;10.00;;;;;;;27.92;25.52;99661.00;5055028;28;20051;-80
2021/08/15 06:24:30;;;;;;;31.10;9.02;;;;;;;27.99;25.17;99651.63;5038249;28;20136;-79
2021/08/15 06:26:56;;;;;;;23.83;10.02;;;;;;;28.01;24.77;99648.63;5038434;28;20177;-79
2021/08/15 06:29:23;;;;;;;25.75;10.05;;;;;;;28.11;24.74;99654.44;5054960;28;20048;-80
2021/08/15 06:31:48;;;;;;;26.75;10.50;;;;;;;28.21;24.37;99660.25;5054351;28;20036;-80
2021/08/15 06:34:14;;;;;;;32.75;10.18;;;;;;;28.41;24.79;99653.69;5055337;28;20052;-78
2021/08/15 06:36:40;;;;;;;27.23;10.40;;;;;;;28.56;24.66;99640.38;5039237;28;20145;-79
2021/08/15 06:39:06;;;;;;;26.08;9.90;;;;;;;28.79;24.23;99645.09;5088705;28;20044;-81
2021/08/15 06:41:33;;;;;;;34.45;10.38;;;;;;;28.97;24.15;99655.22;5063706;28;20044;-79
2021/08/15 06:43:59;;;;;;;33.03;9.88;;;;;;;29.04;23.69;99637.56;5024619;28;20079;-80
2021/08/15 06:46:25;;;;;;;29.50;10.30;;;;;;;29.20;23.14;99647.03;5041264;28;20465;-81
2021/08/15 06:48:51;;;;;;;26.48;9.13;;;;;;;29.31;23.01;99650.06;5059322;28;20104;-81
2021/08/15 06:51:18;;;;;;;31.67;10.32;;;;;;;29.47;22.84;99649.34;5041278;28;20059;-80
2021/08/15 06:53:45;;;;;;;32.97;9.65;;;;;;;29.48;22.90;99645.50;5072122;28;20066;-79
2021/08/15 06:56:12;;;;;;;32.88;9.80;;;;;;;29.68;22.87;99651.53;5055919;28;20462;-79
2021/08/15 06:58:38;;;;;;;28.30;9.93;;;;;;;29.46;22.89;99648.50;5039485;28;20044;-78
2021/08/15 07:01:04;;;;;;;28.45;9.80;;;;;;;29.17;23.07;99642.00;5055535;28;20080;-79
2021/08/15 07:03:30;;;;;;;16.88;9.13;;;;;;;29.00;23.47;99646.53;5053635;28;20129;-79
2021/08/15 07:05:57;;;;;;;29.38;10.07;;;;;;;29.26;23.54;99635.09;5039700;28;20046;-80
2021/08/15 07:08:23;;;;;;;43.60;10.07;;;;;;;29.72;23.15;99638.94;5056292;28;20480;-78
2021/08/15 07:10:49;;;;;;;33.58;9.32;;;;;;;30.01;22.82;99625.22;5066616;28;20077;-77
2021/08/15 07:13:19;;;;;;;27.83;9.65;;;;;;;30.44;22.39;99630.31;5054288;28;20050;-77
2021/08/15 07:15:46;;;;;;;20.98;9.05;;;;;;;30.14;21.72;99641.50;5022605;28;20041;-74
2021/08/15 07:18:12;;;;;;;34.22;10.65;;;;;;;29.76;21.93;99629.13;5037485;28;20056;-78
2021/08/15 07:20:38;;;;;;;28.90;9.50;;;;;;;30.06;22.11;99638.31;5021136;28;20052;-78
2021/08/15 07:23:04;;;;;;;41.58;9.65;;;;;;;30.39;21.95;99643.13;5037481;28;20049;-77
2021/08/15 07:25:30;;;;;;;29.60;9.68;;;;;;;30.63;21.71;99617.16;5071897;28;20045;-76
2021/08/15 07:28:00;;;;;;;24.23;8.90;;;;;;;30.84;21.42;99625.81;5074206;28;20131;-76
2021/08/15 07:30:26;;;;;;;24.95;9.75;;;;;;;31.03;21.62;99627.28;5025207;28;20064;-78
2021/08/15 07:32:54;;;;;;;30.50;8.77;;;;;;;31.21;21.23;99624.25;5040680;28;20166;-78
2021/08/15 07:35:21;;;;;;;23.35;8.30;;;;;;;31.26;21.06;99615.25;5041218;28;20047;-75
2021/08/15 07:37:47;;;;;;;40.10;10.13;;;;;;;31.55;20.90;99629.78;5058703;28;20102;-78
2021/08/15 07:40:13;;;;;;;31.73;9.32;;;;;;;31.83;20.36;99619.72;5067838;28;20071;-77
2021/08/15 07:42:39;;;;;;;22.52;8.60;;;;;;;31.94;19.23;99627.06;5061101;28;20044;-76
2021/08/15 07:45:06;;;;;;;25.00;8.57;;;;;;;32.16;19.44;99627.09;5042173;28;20040;-76
2021/08/15 07:47:32;;;;;;;26.08;9.20;;;;;;;32.30;19.81;99620.03;5059286;28;20123;-78
2021/08/15 07:49:58;;;;;;;21.30;8.07;;;;;;;32.40;19.71;99616.59;5010086;28;20104;-76
2021/08/15 07:52:24;;;;;;;21.90;8.38;;;;;;;32.66;18.90;99616.88;5076303;28;20656;-77
2021/08/15 07:54:50;;;;;;;34.55;9.45;;;;;;;32.83;18.26;99612.06;5041605;28;20530;-76
2021/08/15 07:57:16;;;;;;;33.83;8.90;;;;;;;33.00;17.92;99612.81;5058843;28;20059;-77
2021/08/15 07:59:42;;;;;;;22.90;7.93;;;;;;;33.02;17.55;99602.28;5057789;28;20045;-77
2021/08/15 08:02:08;;;;;;;17.73;7.88;;;;;;;33.18;17.46;99608.00;5073672;28;20055;-78
2021/08/15 08:04:37;;;;;;;23.13;8.80;;;;;;;33.41;17.60;99602.06;5059246;28;20040;-77
2021/08/15 08:07:04;;;;;;;17.00;8.20;;;;;;;33.60;17.06;99597.78;5075592;28;20040;-77
2021/08/15 08:09:30;;;;;;;21.55;8.90;;;;;;;33.66;16.67;99592.25;5048705;28;20388;-76
2021/08/15 08:11:56;;;;;;;20.27;8.95;;;;;;;33.39;17.06;99598.72;5086545;28;20059;-76
2021/08/15 08:14:23;;;;;;;22.38;8.25;;;;;;;33.51;17.16;99591.09;5024509;28;20040;-77
2021/08/15 08:16:49;;;;;;;17.00;9.07;;;;;;;33.79;16.91;99591.78;5090199;28;20049;-78
2021/08/15 08:19:15;;;;;;;18.48;8.38;;;;;;;33.34;16.57;99595.91;5056557;28;20056;-76
2021/08/15 08:21:41;;;;;;;26.42;9.23;;;;;;;32.91;16.86;99591.34;5073731;28;20446;-76
2021/08/15 08:24:08;;;;;;;25.52;8.77;;;;;;;33.30;16.79;99592.84;5059051;28;20045;-77
2021/08/15 08:26:34;;;;;;;26.23;9.07;;;;;;;33.67;16.81;99593.94;5024538;28;20415;-78
2021/08/15 08:29:00;;;;;;;18.10;8.10;;;;;;;34.14;16.74;99588.34;5043227;28;20048;-77
2021/08/15 08:31:27;;;;;;;25.52;8.85;;;;;;;34.60;16.63;99585.72;5085104;28;20044;-76
2021/08/15 08:33:54;;;;;;;20.83;8.80;;;;;;;34.95;16.13;99587.72;5042113;28;20075;-77
2021/08/15 08:36:20;;;;;;;18.40;8.60;;;;;;;34.87;15.56;99563.28;5042268;28;20135;-77
2021/08/15 08:38:46;;;;;;;18.50;9.40;;;;;;;34.90;15.67;99578.53;5040288;28;20113;-78
2021/08/15 08:41:14;;;;;;;19.50;8.20;;;;;;;35.02;15.44;99577.19;5075666;28;20052;-78
2021/08/15 08:43:40;;;;;;;22.33;9.15;;;;;;;35.22;15.50;99575.50;5057271;28;20101;-77
2021/08/15 08:46:08;;;;;;;18.20;8.50;;;;;;;35.15;15.22;99580.53;5056914;28;20412;-78
2021/08/15 08:48:34;;;;;;;21.20;9.05;;;;;;;35.16;15.34;99582.19;5042707;28;20044;-76
2021/08/15 08:51:01;;;;;;;23.58;9.75;;;;;;;34.91;15.23;99567.16;5057653;28;20495;-75
2021/08/15 08:53:27;;;;;;;21.13;8.38;;;;;;;34.78;15.25;99576.88;5072847;28;20127;-76
2021/08/15 08:55:53;;;;;;;26.02;8.18;;;;;;;34.47;15.50;99575.13;5056313;28;20040;-76
2021/08/15 08:58:19;;;;;;;21.23;8.15;;;;;;;34.84;15.50;99580.50;5074073;28;20135;-78
2021/08/15 09:00:46;;;;;;;24.77;8.52;;;;;;;35.06;15.70;99573.88;5039511;28;20044;-77
2021/08/15 09:03:13;;;;;;;16.75;8.48;;;;;;;35.60;15.75;99570.47;5072892;28;20044;-74
2021/08/15 09:05:39;;;;;;;29.33;9.45;;;;;;;36.02;15.61;99572.03;5023052;28;20516;-76
2021/08/15 09:08:34;;;;;;;23.90;9.20;;;;;;;36.36;14.79;99584.09;5041528;28;20539;-77
2021/08/15 09:11:12;;;;;;;38.90;9.52;;;;;;;36.43;14.46;99584.59;5041305;28;20143;-78
2021/08/15 09:13:37;;;;;;;18.08;7.80;;;;;;;36.25;14.57;99576.91;5039143;28;20048;-76
2021/08/15 09:16:04;;;;;;;18.40;8.55;;;;;;;36.44;15.09;99580.69;5055687;28;20048;-75
2021/08/15 09:18:30;;;;;;;17.00;8.35;;;;;;;36.35;14.50;99576.03;5039173;28;20063;-77
2021/08/15 09:20:56;;;;;;;17.90;8.75;;;;;;;36.21;14.80;99587.78;5039112;28;20071;-75
2021/08/15 09:23:34;;;;;;;14.23;8.75;;;;;;;36.44;14.49;99579.84;5039017;28;20499;-76
2021/08/15 09:26:16;;;;;;;24.95;8.60;;;;;;;36.61;14.03;99576.72;5043242;28;20072;-76
2021/08/15 09:28:44;;;;;;;15.20;8.27;;;;;;;36.97;13.94;99570.91;5072000;28;20048;-76
2021/08/15 09:31:31;;;;;;;;;;;;;;;37.36;13.25;99563.31;5023325;28;20044;-77
2021/08/15 09:33:59;;;;;;;12.23;7.68;;;;;;;37.01;12.19;99571.97;5022616;28;20442;-76
2021/08/15 09:36:38;;;;;;;17.42;8.48;;;;;;;37.26;12.59;99563.41;5039042;28;20042;-76
2021/08/15 09:39:05;;;;;;;14.10;7.82;;;;;;;37.25;12.34;99567.31;5071968;28;20043;-76
2021/08/15 09:41:34;;;;;;;13.48;8.18;;;;;;;36.88;11.79;99574.28;5055287;28;20048;-76
2021/08/15 09:44:20;;;;;;;20.55;8.50;;;;;;;37.24;12.27;99565.66;5022497;28;20147;-76
2021/08/15 09:47:04;;;;;;;16.63;7.82;;;;;;;37.39;12.15;99548.78;5023347;28;20048;-76
2021/08/15 09:49:38;;;;;;;12.20;7.45;;;;;;;36.87;12.52;99561.50;5088098;28;20044;-77
2021/08/15 09:52:05;;;;;;;15.45;8.10;;;;;;;36.62;12.76;99558.91;5038672;28;20040;-75
2021/08/15 09:54:32;;;;;;;14.10;7.87;;;;;;;36.97;12.72;99565.34;5055042;28;20044;-77
2021/08/15 09:56:58;;;;;;;13.50;7.75;;;;;;;37.28;13.07;99566.72;5025446;28;20364;-76
2021/08/15 09:59:25;;;;;;;23.77;7.95;;;;;;;37.16;11.91;99574.63;5066113;28;20048;-76
2021/08/15 10:01:52;;;;;;;19.07;7.93;;;;;;;37.00;12.21;99564.75;5075164;28;20043;-77
2021/08/15 10:04:19;;;;;;;13.20;8.00;;;;;;;37.00;12.50;99553.59;5058452;28;20090;-77
2021/08/15 10:06:47;;;;;;;15.30;7.97;;;;;;;37.05;12.58;99550.75;5092225;28;20054;-76
2021/08/15 10:09:13;;;;;;;12.40;7.90;;;;;;;36.84;12.41;99553.72;5058490;28;20044;-77
2021/08/15 10:11:39;;;;;;;20.10;7.28;;;;;;;36.99;12.48;99547.22;5075251;28;20072;-76
2021/08/15 10:14:07;;;;;;;14.98;7.40;;;;;;;37.49;12.09;99552.59;5074946;28;20052;-77
2021/08/15 10:16:37;;;;;;;14.85;7.78;;;;;;;37.76;12.05;99554.78;5075041;28;20071;-76
2021/08/15 10:19:13;;;;;;;16.70;8.05;;;;;;;37.09;11.83;99565.81;5042289;28;20147;-75
2021/08/15 10:21:44;;;;;;;19.85;8.05;;;;;;;37.22;12.28;99556.75;5074784;28;20134;-79
2021/08/15 10:24:11;;;;;;;17.92;8.45;;;;;;;37.71;11.89;99552.91;5074893;28;20044;-77
2021/08/15 10:26:39;;;;;;;13.17;7.00;;;;;;;38.01;11.71;99540.56;5058475;28;20161;-77
2021/08/15 10:29:37;;;;;;;11.20;7.50;;;;;;;38.01;11.18;99553.69;5056742;28;20071;-76
2021/08/15 10:32:12;;;;;;;14.25;7.75;;;;;;;38.44;11.35;99548.94;5090137;28;20114;-78
2021/08/15 10:34:51;;;;;;;14.38;7.15;;;;;;;38.91;10.75;99546.25;5072455;28;20048;-78
2021/08/15 10:37:23;;;;;;;18.38;7.90;;;;;;;38.82;10.67;99548.91;5090129;28;20044;-77
2021/08/15 10:39:49;;;;;;;13.00;7.15;;;;;;;38.29;10.95;99541.56;5072249;28;20139;-78
2021/08/15 10:42:43;;;;;;;12.57;7.03;;;;;;;38.14;11.19;99538.97;5055185;28;20131;-78
2021/08/15 10:45:23;;;;;;;20.65;7.60;;;;;;;37.73;11.55;99535.84;5054331;28;20565;-79
2021/08/15 10:48:13;;;;;;;14.18;7.05;;;;;;;37.56;11.88;99537.16;5037931;28;20052;-78
2021/08/15 10:51:00;;;;;;;13.27;7.07;;;;;;;37.87;12.15;99537.63;5053911;28;20083;-79
2021/08/15 10:53:29;;;;;;;13.30;7.23;;;;;;;37.33;11.42;99535.19;5039712;28;20105;-79
2021/08/15 10:56:02;;;;;;;16.27;6.95;;;;;;;37.06;11.56;99546.88;5054225;28;20049;-79
2021/08/15 10:58:42;;;;;;;20.50;13.40;;;;;;;37.36;11.71;99535.41;5054705;28;20040;-79
2021/08/15 11:01:15;;;;;;;12.00;7.22;;;;;;;37.59;11.27;99535.75;5054063;28;20051;-79
2021/08/15 11:03:47;;;;;;;13.02;7.60;;;;;;;37.33;11.65;99541.56;5041892;28;20403;-77
2021/08/15 11:06:36;;;;;;;11.32;7.20;;;;;;;37.09;12.23;99538.75;5074964;28;20083;-78
2021/08/15 11:09:06;;;;;;;12.63;7.50;;;;;;;37.17;11.76;99526.16;5091510;28;20043;-79
2021/08/15 11:11:37;;;;;;;12.75;7.82;;;;;;;37.38;11.88;99530.34;5041809;28;20049;-79
2021/08/15 11:14:21;;;;;;;22.83;8.02;;;;;;;37.56;11.80;99541.94;5042907;28;20063;-78
2021/08/15 11:16:52;;;;;;;12.80;7.47;;;;;;;37.39;11.46;99532.03;5075790;28;20117;-76
2021/08/15 11:19:18;;;;;;;12.20;7.03;;;;;;;37.45;11.57;99543.16;5057600;28;20053;-77
2021/08/15 11:22:03;;;;;;;10.85;7.30;;;;;;;37.29;11.14;99536.91;5057749;28;20045;-77
2021/08/15 11:24:31;;;;;;;17.30;7.32;;;;;;;37.36;11.30;99538.22;5091394;28;20138;-78
2021/08/15 11:26:57;;;;;;;13.68;7.30;;;;;;;37.73;11.47;99535.84;5008547;28;20052;-77